Williamstown, New York
Current Conditions -  °F | °C
As of 12:36 PM on Wednesday 26 Nov 2014 (Local Time) from KSYR Reporting Station
Light Snow Light Snow  
Wind Chill: 33°   Ceiling: 1700
Heat Index: 33°   Visibility: 0.75mi
Dew Point: 29°   Wind: 3mph
Humidity: 85%   Direction: 50°NE
Pressure: 30.13"   Gusts: NA
Location:  43.42°N, 75.89°W
Report Text: KSYR 261736Z 05003KT 3/4SM R28/5000VP6000FT -SN BR VV017 01/M02 A3013 RMK AO2 P0000 T00061017
Loading
Personal Weather Stations






























Interactive Weather Map New forecast layout! Learn more

10-Day Weather Forecast

Advertisements
Track Severe Weather on mobile